Time;durP1;ratioP1;P1;durP2;ratioP2;P2;SDS_P1;SDS_P2;PMS_P1;PMS_P2;Temp;Humidity;BMP_temperature;BMP_pressure;BME280_temperature;BME280_humidity;BME280_pressure;Samples;Min_cycle;Max_cycle;Signal;HPM_P1;HPM_P2
2024/03/26 00:00:06;;;;;;;5.95;3.33;;;6.10;68.80;;;;;;5040781;28;20728;-59
2024/03/26 00:02:32;;;;;;;4.22;3.00;;;6.10;68.90;;;;;;5039074;28;20029;-60
2024/03/26 00:04:57;;;;;;;5.78;3.20;;;6.10;68.90;;;;;;5038677;28;20036;-61
2024/03/26 00:07:23;;;;;;;4.00;3.00;;;6.10;68.90;;;;;;5039023;28;20037;-61
2024/03/26 00:09:48;;;;;;;5.90;3.17;;;6.10;68.70;;;;;;5041843;28;20048;-62
2024/03/26 00:12:14;;;;;;;10.70;3.95;;;6.10;68.70;;;;;;5044623;28;20025;-59
2024/03/26 00:14:40;;;;;;;8.02;4.07;;;6.10;68.70;;;;;;5047208;28;20124;-60
2024/03/26 00:17:05;;;;;;;7.32;3.33;;;6.10;68.70;;;;;;5046775;28;20059;-61
2024/03/26 00:19:31;;;;;;;6.53;3.17;;;6.10;68.70;;;;;;5049229;28;20033;-61
2024/03/26 00:21:56;;;;;;;5.85;3.30;;;6.10;68.80;;;;;;5046126;28;20044;-61
2024/03/26 00:24:23;;;;;;;6.40;3.20;;;6.10;68.90;;;;;;5040858;28;20076;-62
2024/03/26 00:26:49;;;;;;;4.40;2.97;;;6.10;68.80;;;;;;5046723;28;20033;-61
2024/03/26 00:29:14;;;;;;;5.22;3.30;;;6.10;68.80;;;;;;5048895;28;20045;-62
2024/03/26 00:31:40;;;;;;;6.32;3.53;;;6.10;68.90;;;;;;5049141;28;20052;-62
2024/03/26 00:34:06;;;;;;;6.07;3.42;;;6.10;68.90;;;;;;5044906;28;20033;-62
2024/03/26 00:36:31;;;;;;;4.97;3.08;;;6.10;68.90;;;;;;5041572;28;20036;-62
2024/03/26 00:38:57;;;;;;;6.32;3.42;;;6.10;69.10;;;;;;5048945;28;20056;-62
2024/03/26 00:41:23;;;;;;;4.70;3.17;;;6.10;69.10;;;;;;5047717;28;20026;-62
2024/03/26 00:43:49;;;;;;;4.95;3.33;;;6.10;69.10;;;;;;5045789;28;20168;-62
2024/03/26 00:46:14;;;;;;;5.05;2.83;;;6.10;69.10;;;;;;5047535;28;20033;-62
2024/03/26 00:48:40;;;;;;;4.85;3.25;;;6.10;69.10;;;;;;5048952;28;20041;-62
2024/03/26 00:51:06;;;;;;;4.97;3.20;;;6.10;69.10;;;;;;5044348;28;20041;-62
2024/03/26 00:53:31;;;;;;;4.65;3.17;;;6.10;69.10;;;;;;5044294;28;20036;-61
2024/03/26 00:55:57;;;;;;;4.82;3.35;;;6.00;68.90;;;;;;5040037;28;20037;-62
2024/03/26 00:58:23;;;;;;;5.43;3.70;;;6.00;69.00;;;;;;5046709;28;20587;-60
2024/03/26 01:00:48;;;;;;;5.47;3.50;;;6.00;69.10;;;;;;5045640;28;20025;-63
2024/03/26 01:03:14;;;;;;;5.15;3.40;;;6.00;69.10;;;;;;5049640;28;20025;-63
2024/03/26 01:05:40;;;;;;;6.40;3.38;;;6.00;69.10;;;;;;5052732;28;20048;-63
2024/03/26 01:08:06;;;;;;;6.43;3.67;;;6.00;69.20;;;;;;5049299;28;20086;-63
2024/03/26 01:10:32;;;;;;;5.25;3.33;;;5.90;69.30;;;;;;5053782;28;20033;-62
2024/03/26 01:12:57;;;;;;;5.57;3.40;;;5.90;70.10;;;;;;5051969;28;20082;-63
2024/03/26 01:15:23;;;;;;;6.68;3.28;;;5.90;69.40;;;;;;5051756;28;20029;-64
2024/03/26 01:17:49;;;;;;;4.90;3.40;;;5.90;69.40;;;;;;5047581;28;20091;-62
2024/03/26 01:20:15;;;;;;;4.82;3.08;;;5.80;69.40;;;;;;5050143;28;20548;-63
2024/03/26 01:22:41;;;;;;;5.03;3.35;;;5.80;69.40;;;;;;5052626;28;20558;-62
2024/03/26 01:25:07;;;;;;;5.70;3.53;;;5.80;69.40;;;;;;5051528;28;20040;-63
2024/03/26 01:27:33;;;;;;;5.43;3.42;;;5.70;69.40;;;;;;5049390;28;20037;-62
2024/03/26 01:29:59;;;;;;;6.30;3.35;;;5.70;69.70;;;;;;5049090;28;20048;-62
2024/03/26 01:32:25;;;;;;;5.47;3.38;;;5.60;69.60;;;;;;5049893;28;20032;-62
2024/03/26 01:34:51;;;;;;;5.43;3.50;;;5.60;69.80;;;;;;5050659;28;20083;-60
2024/03/26 01:37:17;;;;;;;4.32;3.17;;;5.60;69.80;;;;;;5052046;28;20029;-63
2024/03/26 01:39:43;;;;;;;7.10;3.80;;;5.60;70.00;;;;;;5049361;28;20033;-63
2024/03/26 01:42:08;;;;;;;6.60;3.17;;;5.60;69.90;;;;;;5048041;28;20041;-63
2024/03/26 01:44:34;;;;;;;6.28;3.65;;;5.60;70.00;;;;;;5047830;28;20120;-64
2024/03/26 01:47:00;;;;;;;4.05;3.63;;;5.50;70.00;;;;;;5044526;28;20060;-63
2024/03/26 01:49:26;;;;;;;4.45;3.40;;;5.50;69.80;;;;;;5041097;28;20048;-63
2024/03/26 01:51:53;;;;;;;7.25;3.80;;;5.50;69.90;;;;;;5036929;28;20068;-63
2024/03/26 01:54:18;;;;;;;4.57;3.33;;;5.50;70.00;;;;;;5041798;28;20028;-62
2024/03/26 01:56:44;;;;;;;4.43;3.50;;;5.50;70.10;;;;;;5046683;28;20029;-62
2024/03/26 01:59:11;;;;;;;5.35;3.63;;;5.50;70.10;;;;;;5046089;28;20033;-63
2024/03/26 02:01:37;;;;;;;7.72;3.50;;;5.50;70.00;;;;;;5049752;28;20100;-64
2024/03/26 02:04:03;;;;;;;4.78;3.50;;;5.50;70.00;;;;;;5042082;28;20029;-64
2024/03/26 02:06:28;;;;;;;6.28;4.22;;;5.40;70.00;;;;;;5047247;28;20037;-62
2024/03/26 02:08:57;;;;;;;6.10;4.13;;;5.40;70.10;;;;;;5040801;28;20044;-63
2024/03/26 02:11:24;;;;;;;5.72;3.55;;;5.30;70.00;;;;;;5045612;28;20041;-62
2024/03/26 02:13:49;;;;;;;5.38;3.85;;;5.40;70.10;;;;;;5048614;28;20478;-62
2024/03/26 02:16:15;;;;;;;5.28;3.80;;;5.30;70.10;;;;;;5045035;28;20056;-63
2024/03/26 02:18:41;;;;;;;7.28;3.75;;;5.30;70.30;;;;;;5043692;28;20037;-62
2024/03/26 02:21:06;;;;;;;6.40;3.60;;;5.30;70.30;;;;;;5043092;28;20110;-63
2024/03/26 02:23:32;;;;;;;4.53;3.15;;;5.30;70.20;;;;;;5040418;28;20029;-61
2024/03/26 02:25:57;;;;;;;5.95;3.85;;;5.20;70.10;;;;;;5041749;28;20033;-64
2024/03/26 02:28:23;;;;;;;4.40;3.30;;;5.20;69.40;;;;;;5039786;28;20024;-61
2024/03/26 02:30:48;;;;;;;5.72;3.83;;;5.20;70.00;;;;;;5042679;28;20036;-61
2024/03/26 02:33:14;;;;;;;5.53;3.80;;;5.20;70.10;;;;;;5044217;28;20029;-64
2024/03/26 02:35:40;;;;;;;5.07;3.28;;;5.20;70.10;;;;;;5039605;28;20033;-64
2024/03/26 02:38:05;;;;;;;6.07;3.90;;;5.10;70.10;;;;;;5046965;28;20072;-63
2024/03/26 02:40:32;;;;;;;5.30;3.83;;;5.10;70.30;;;;;;5041453;28;20524;-64
2024/03/26 02:43:01;;;;;;;4.47;3.45;;;5.00;70.30;;;;;;5042785;28;20025;-62
2024/03/26 02:45:27;;;;;;;4.47;3.65;;;4.90;70.40;;;;;;5047329;28;20676;-62
2024/03/26 02:47:53;;;;;;;5.05;3.35;;;4.90;70.60;;;;;;5043786;28;20029;-64
2024/03/26 02:50:19;;;;;;;4.82;3.50;;;4.90;70.70;;;;;;5039077;28;20037;-64
2024/03/26 02:52:44;;;;;;;5.28;3.63;;;4.80;70.80;;;;;;5041197;28;20037;-64
2024/03/26 02:55:10;;;;;;;7.07;4.13;;;4.70;70.90;;;;;;5044841;28;20029;-62
2024/03/26 02:57:36;;;;;;;6.45;3.95;;;4.70;71.10;;;;;;5043325;28;20040;-63
2024/03/26 03:00:01;;;;;;;8.10;4.05;;;4.60;71.30;;;;;;5044395;28;20044;-63
2024/03/26 03:02:27;;;;;;;7.78;4.47;;;4.50;71.60;;;;;;5045736;28;20044;-63
2024/03/26 03:04:53;;;;;;;6.05;3.83;;;4.50;71.90;;;;;;5042873;28;20434;-61
2024/03/26 03:07:18;;;;;;;4.85;3.85;;;4.40;72.10;;;;;;5044069;28;20036;-62
2024/03/26 03:09:47;;;;;;;6.40;3.80;;;4.40;72.20;;;;;;5038566;28;20037;-63
2024/03/26 03:12:12;;;;;;;8.70;3.83;;;4.30;72.50;;;;;;5038369;28;20036;-64
2024/03/26 03:14:38;;;;;;;5.15;3.78;;;4.30;72.40;;;;;;5042051;28;20029;-63
2024/03/26 03:17:04;;;;;;;5.40;3.88;;;4.30;72.60;;;;;;5044158;28;20120;-64
2024/03/26 03:19:30;;;;;;;6.40;4.00;;;4.30;72.60;;;;;;5046492;28;20037;-63
2024/03/26 03:21:56;;;;;;;5.03;3.78;;;4.30;72.60;;;;;;5038772;28;20097;-63
2024/03/26 03:24:22;;;;;;;8.13;4.00;;;4.40;72.60;;;;;;5040909;28;20040;-61
2024/03/26 03:26:47;;;;;;;7.93;4.18;;;4.40;72.70;;;;;;5042176;28;20033;-63
2024/03/26 03:29:13;;;;;;;6.47;3.97;;;4.40;72.70;;;;;;5042614;28;20044;-62
2024/03/26 03:31:38;;;;;;;7.38;4.30;;;4.40;72.70;;;;;;5042389;28;20057;-63
2024/03/26 03:34:04;;;;;;;7.20;4.10;;;4.40;72.70;;;;;;5045768;28;20398;-63
2024/03/26 03:36:29;;;;;;;5.28;4.03;;;4.40;72.70;;;;;;5044587;28;20030;-64
2024/03/26 03:38:55;;;;;;;7.68;4.00;;;4.40;72.70;;;;;;5041647;28;20036;-63
2024/03/26 03:41:21;;;;;;;5.95;4.20;;;4.40;72.80;;;;;;5045723;28;20029;-63
2024/03/26 03:43:46;;;;;;;5.50;4.10;;;4.30;72.90;;;;;;5040426;28;20500;-62
2024/03/26 03:46:12;;;;;;;5.93;4.00;;;4.30;73.10;;;;;;5048376;28;20447;-60
2024/03/26 03:48:37;;;;;;;6.68;4.25;;;4.30;73.20;;;;;;5046043;28;20047;-61
2024/03/26 03:51:03;;;;;;;6.22;3.72;;;4.20;73.20;;;;;;5044389;28;20116;-61
2024/03/26 03:53:29;;;;;;;6.60;4.18;;;4.20;73.30;;;;;;5046971;28;20748;-63
2024/03/26 03:55:54;;;;;;;7.53;4.13;;;4.20;73.30;;;;;;5048647;28;20035;-64
2024/03/26 03:58:20;;;;;;;7.45;4.00;;;4.20;73.40;;;;;;5046997;28;20049;-63
2024/03/26 04:00:45;;;;;;;6.25;4.45;;;4.20;73.50;;;;;;5049116;28;20044;-62
2024/03/26 04:03:11;;;;;;;5.85;4.35;;;4.30;73.60;;;;;;5050178;28;20030;-62
2024/03/26 04:05:38;;;;;;;6.97;4.38;;;4.30;73.70;;;;;;5049497;28;20044;-63
2024/03/26 04:08:04;;;;;;;6.45;4.15;;;4.30;73.70;;;;;;5048344;28;20044;-63
2024/03/26 04:10:37;;;;;;;8.75;4.80;;;4.30;73.70;;;;;;5050554;28;20056;-63
2024/03/26 04:13:03;;;;;;;7.80;4.38;;;4.30;73.80;;;;;;5044307;28;20408;-63
2024/03/26 04:15:29;;;;;;;6.68;4.63;;;4.20;73.60;;;;;;5041917;28;20033;-63
2024/03/26 04:17:54;;;;;;;8.43;4.50;;;4.20;73.80;;;;;;5046917;28;20029;-63
2024/03/26 04:20:20;;;;;;;6.18;4.63;;;4.20;73.90;;;;;;5043635;28;20040;-63
2024/03/26 04:22:49;;;;;;;6.47;4.55;;;4.20;74.10;;;;;;5049693;28;20034;-63
2024/03/26 04:25:15;;;;;;;9.68;4.57;;;4.20;74.10;;;;;;5050546;28;20032;-63
2024/03/26 04:27:41;;;;;;;6.72;4.43;;;4.20;74.20;;;;;;5043220;28;20582;-63
2024/03/26 04:30:10;;;;;;;8.75;4.93;;;4.10;74.20;;;;;;5042731;28;20127;-64
2024/03/26 04:32:36;;;;;;;7.88;4.72;;;4.10;74.40;;;;;;5046279;28;20021;-62
2024/03/26 04:35:02;;;;;;;6.25;4.63;;;4.10;74.30;;;;;;5048130;28;20526;-63
2024/03/26 04:37:28;;;;;;;7.80;5.15;;;4.10;74.40;;;;;;5048012;28;20039;-62
2024/03/26 04:39:53;;;;;;;5.85;4.53;;;4.10;74.50;;;;;;5037094;28;20033;-62
2024/03/26 04:42:20;;;;;;;6.78;4.70;;;4.10;74.50;;;;;;5041825;28;20049;-62
2024/03/26 04:44:46;;;;;;;7.60;4.70;;;4.20;74.60;;;;;;5044538;28;20170;-63
2024/03/26 04:47:11;;;;;;;7.57;4.75;;;4.20;74.60;;;;;;5043200;28;20155;-64
2024/03/26 04:49:37;;;;;;;7.20;5.22;;;4.20;74.60;;;;;;5042853;28;20090;-63
2024/03/26 04:52:02;;;;;;;6.97;4.97;;;4.20;74.60;;;;;;5042880;28;20052;-63
2024/03/26 04:54:28;;;;;;;6.75;4.82;;;4.20;74.70;;;;;;5041483;28;20056;-63
2024/03/26 04:56:54;;;;;;;6.78;4.55;;;4.20;74.70;;;;;;5040385;28;20067;-63
2024/03/26 04:59:19;;;;;;;6.32;4.70;;;4.20;74.70;;;;;;5043281;28;20496;-63
2024/03/26 05:01:45;;;;;;;8.63;4.82;;;4.20;74.80;;;;;;5042602;28;20037;-63
2024/03/26 05:04:11;;;;;;;8.20;5.18;;;4.20;74.90;;;;;;5041352;28;20037;-63
2024/03/26 05:06:36;;;;;;;10.07;5.43;;;4.20;74.90;;;;;;5046603;28;20045;-63
2024/03/26 05:09:04;;;;;;;7.68;5.32;;;4.20;75.00;;;;;;5046134;28;20083;-63
2024/03/26 05:11:30;;;;;;;7.28;4.47;;;4.20;75.00;;;;;;5044953;28;20060;-63
2024/03/26 05:13:55;;;;;;;6.93;5.15;;;4.20;75.20;;;;;;5047588;28;20033;-63
2024/03/26 05:16:21;;;;;;;8.25;5.00;;;4.20;75.20;;;;;;5042024;28;20099;-63
2024/03/26 05:18:46;;;;;;;8.38;4.95;;;4.20;75.30;;;;;;5046058;28;20044;-62
2024/03/26 05:21:13;;;;;;;8.88;5.18;;;4.30;75.50;;;;;;5047552;28;20136;-63
2024/03/26 05:23:39;;;;;;;10.05;5.40;;;4.30;75.30;;;;;;5044471;28;20055;-61
2024/03/26 05:26:04;;;;;;;9.30;5.03;;;4.20;75.40;;;;;;5041922;28;20041;-62
2024/03/26 05:28:30;;;;;;;7.10;5.25;;;4.20;75.40;;;;;;5040623;28;20048;-63
2024/03/26 05:31:13;;;;;;;8.35;5.10;;;4.20;75.50;;;;;;5045370;28;20044;-63
2024/03/26 05:33:39;;;;;;;8.27;5.07;;;4.20;75.50;;;;;;5045622;28;20036;-63
2024/03/26 05:36:05;;;;;;;6.43;4.60;;;4.30;75.50;;;;;;5044797;28;20113;-63
2024/03/26 05:38:30;;;;;;;7.75;5.15;;;4.30;75.50;;;;;;5043277;28;20032;-63
2024/03/26 05:40:56;;;;;;;8.48;5.05;;;4.30;75.50;;;;;;5042987;28;20047;-63
2024/03/26 05:43:22;;;;;;;9.70;5.50;;;4.30;75.50;;;;;;5044034;28;20029;-63
2024/03/26 05:45:47;;;;;;;8.32;5.20;;;4.30;75.50;;;;;;5048052;28;20040;-64
2024/03/26 05:48:13;;;;;;;9.85;5.57;;;4.30;75.50;;;;;;5047272;28;20501;-63
2024/03/26 05:50:39;;;;;;;7.82;5.78;;;4.40;75.70;;;;;;5050530;28;20409;-62
2024/03/26 05:53:06;;;;;;;7.30;5.60;;;4.40;75.80;;;;;;5046319;28;20052;-61
2024/03/26 05:55:33;;;;;;;9.57;5.68;;;4.40;76.00;;;;;;5045863;28;20025;-63
2024/03/26 05:57:58;;;;;;;9.48;5.72;;;4.40;76.10;;;;;;5048986;28;20038;-63
2024/03/26 06:00:24;;;;;;;10.88;6.53;;;4.30;76.20;;;;;;5046805;28;20041;-60
2024/03/26 06:02:49;;;;;;;8.20;6.00;;;4.30;76.30;;;;;;5046128;28;20048;-61
2024/03/26 06:05:15;;;;;;;7.07;5.25;;;4.40;76.40;;;;;;5047297;28;20717;-61
2024/03/26 06:07:41;;;;;;;8.57;5.75;;;4.40;76.70;;;;;;5046261;28;20037;-63
2024/03/26 06:10:07;;;;;;;8.57;5.47;;;4.40;76.60;;;;;;5044533;28;20088;-63
2024/03/26 06:12:32;;;;;;;10.20;5.05;;;4.50;76.80;;;;;;5047047;28;20048;-62
2024/03/26 06:14:58;;;;;;;8.85;5.90;;;4.50;76.80;;;;;;5046855;28;20615;-61
2024/03/26 06:17:23;;;;;;;9.63;5.80;;;4.60;76.90;;;;;;5050077;28;20499;-62
2024/03/26 06:19:49;;;;;;;7.95;5.78;;;4.60;76.90;;;;;;5041159;28;20029;-61
2024/03/26 06:22:15;;;;;;;10.32;5.68;;;4.70;77.00;;;;;;5049914;28;20037;-61
2024/03/26 06:24:40;;;;;;;8.10;5.63;;;4.70;77.00;;;;;;5041257;28;20742;-62
2024/03/26 06:27:07;;;;;;;6.80;5.20;;;4.80;77.10;;;;;;5051319;28;20405;-61
2024/03/26 06:29:32;;;;;;;10.82;5.63;;;4.80;76.90;;;;;;5047428;28;20404;-63
2024/03/26 06:31:58;;;;;;;8.68;5.63;;;4.90;76.90;;;;;;5048356;28;20033;-62
2024/03/26 06:34:23;;;;;;;11.88;6.03;;;4.90;76.90;;;;;;5047884;28;20029;-62
2024/03/26 06:36:49;;;;;;;8.20;5.45;;;5.00;76.90;;;;;;5042825;28;20041;-62
2024/03/26 06:39:18;;;;;;;8.02;5.85;;;5.00;76.90;;;;;;5049072;28;20104;-63
2024/03/26 06:41:43;;;;;;;14.57;6.22;;;5.00;76.80;;;;;;5047047;28;20037;-63
2024/03/26 06:44:09;;;;;;;9.00;5.85;;;5.10;76.70;;;;;;5046822;28;20381;-63
2024/03/26 06:46:34;;;;;;;7.05;5.63;;;5.20;77.60;;;;;;5043416;28;20060;-62
2024/03/26 06:49:00;;;;;;;8.93;6.03;;;5.20;76.60;;;;;;5040711;28;20052;-63
2024/03/26 06:51:25;;;;;;;8.32;5.80;;;5.20;76.40;;;;;;5042757;28;20043;-63
2024/03/26 06:53:52;;;;;;;7.45;5.47;;;5.30;76.30;;;;;;5043037;28;20037;-62
2024/03/26 06:56:18;;;;;;;8.20;5.30;;;5.30;76.20;;;;;;5048203;28;20473;-63
2024/03/26 06:58:45;;;;;;;9.02;5.80;;;5.30;76.40;;;;;;5049159;28;20064;-63
2024/03/26 07:01:12;;;;;;;9.77;5.78;;;5.30;76.40;;;;;;5047096;28;20642;-64
2024/03/26 07:03:38;;;;;;;7.40;5.25;;;5.40;76.50;;;;;;5043406;28;20090;-62
2024/03/26 07:06:06;;;;;;;9.23;5.70;;;5.40;76.30;;;;;;5043948;28;20044;-63
2024/03/26 07:08:37;;;;;;;9.10;5.65;;;5.50;76.50;;;;;;5043970;28;20509;-62
2024/03/26 07:11:03;;;;;;;13.43;5.97;;;5.40;76.50;;;;;;5049598;28;20119;-64
2024/03/26 07:13:29;;;;;;;7.88;5.18;;;5.50;76.50;;;;;;5045814;28;20559;-64
2024/03/26 07:15:56;;;;;;;9.15;5.10;;;5.50;76.30;;;;;;5044444;28;20033;-64
2024/03/26 07:18:21;;;;;;;8.65;5.10;;;5.60;76.20;;;;;;5044947;28;20112;-63
2024/03/26 07:20:47;;;;;;;8.68;5.40;;;5.60;76.20;;;;;;5044188;28;20123;-64
2024/03/26 07:23:15;;;;;;;7.28;5.25;;;5.60;76.20;;;;;;5043562;28;20033;-63
2024/03/26 07:25:41;;;;;;;8.52;5.45;;;5.70;76.30;;;;;;5049557;28;20512;-64
2024/03/26 07:28:06;;;;;;;8.98;5.43;;;5.70;76.20;;;;;;5042876;28;20064;-63
2024/03/26 07:30:32;;;;;;;6.43;4.95;;;5.80;76.10;;;;;;5049767;28;20044;-63
2024/03/26 07:32:58;;;;;;;7.88;5.10;;;5.80;76.20;;;;;;5046818;28;20021;-63
2024/03/26 07:35:27;;;;;;;8.43;4.63;;;5.80;76.20;;;;;;5045405;28;20033;-61
2024/03/26 07:37:52;;;;;;;6.85;4.80;;;5.90;76.10;;;;;;5043985;28;20059;-63
2024/03/26 07:40:18;;;;;;;9.07;5.38;;;5.90;76.20;;;;;;5041392;28;20471;-63
2024/03/26 07:42:43;;;;;;;7.00;4.80;;;6.00;76.30;;;;;;5046131;28;20505;-64
2024/03/26 07:45:09;;;;;;;6.40;4.80;;;6.10;76.20;;;;;;5042655;28;20037;-64
2024/03/26 07:47:36;;;;;;;8.18;4.57;;;6.10;76.20;;;;;;5046678;28;20420;-63
2024/03/26 07:50:02;;;;;;;7.90;4.95;;;6.20;76.20;;;;;;5045802;28;20029;-64
2024/03/26 07:52:28;;;;;;;6.22;4.15;;;6.30;76.00;;;;;;5058969;28;20033;-63
2024/03/26 07:54:53;;;;;;;6.78;4.57;;;6.30;75.70;;;;;;5043054;28;20134;-64
2024/03/26 07:57:19;;;;;;;6.85;5.05;;;6.40;75.60;;;;;;5051144;28;20089;-64
2024/03/26 07:59:44;;;;;;;7.93;4.78;;;6.40;75.60;;;;;;5046305;28;20044;-63
2024/03/26 08:02:11;;;;;;;8.95;4.90;;;6.50;75.70;;;;;;5043654;28;20408;-64
2024/03/26 08:04:37;;;;;;;7.20;4.68;;;6.50;75.50;;;;;;5040583;28;20499;-64
2024/03/26 08:07:03;;;;;;;7.63;5.50;;;6.50;75.70;;;;;;5042099;28;20040;-64
2024/03/26 08:09:31;;;;;;;10.45;4.93;;;6.60;75.50;;;;;;5043325;28;20497;-63
2024/03/26 08:11:57;;;;;;;6.00;4.72;;;6.60;75.20;;;;;;5045777;28;20063;-64
2024/03/26 08:14:22;;;;;;;7.55;5.05;;;6.70;75.30;;;;;;5046907;28;20121;-64
2024/03/26 08:16:48;;;;;;;10.32;5.05;;;6.70;75.40;;;;;;5046567;28;20040;-63
2024/03/26 08:19:13;;;;;;;7.13;4.90;;;6.70;75.40;;;;;;5038047;28;20104;-62
2024/03/26 08:21:39;;;;;;;10.40;5.30;;;6.80;75.50;;;;;;5046249;28;20110;-63
2024/03/26 08:24:05;;;;;;;6.45;4.68;;;6.80;75.40;;;;;;5044472;28;20026;-61
2024/03/26 08:26:32;;;;;;;7.93;5.15;;;6.90;75.30;;;;;;5051601;28;20029;-63
2024/03/26 08:28:58;;;;;;;8.18;5.05;;;6.90;75.40;;;;;;5048658;28;20033;-63
2024/03/26 08:31:24;;;;;;;7.05;5.25;;;7.00;75.30;;;;;;5039498;28;20432;-61
2024/03/26 08:33:50;;;;;;;6.18;5.10;;;7.00;75.40;;;;;;5049345;28;20044;-62
2024/03/26 08:36:15;;;;;;;8.23;5.00;;;7.00;75.30;;;;;;5046370;28;20394;-62
2024/03/26 08:38:41;;;;;;;7.03;5.15;;;7.00;75.10;;;;;;5049719;28;20036;-62
2024/03/26 08:41:07;;;;;;;7.50;4.82;;;7.00;75.10;;;;;;5052062;28;20040;-63
2024/03/26 08:43:33;;;;;;;7.65;4.82;;;7.10;75.10;;;;;;5045399;28;20524;-61
2024/03/26 08:45:58;;;;;;;8.50;4.88;;;7.10;75.10;;;;;;5049889;28;20037;-62
2024/03/26 08:48:24;;;;;;;7.72;4.72;;;7.20;75.10;;;;;;5048764;28;20053;-61
2024/03/26 08:50:49;;;;;;;7.47;5.05;;;7.20;75.30;;;;;;5044592;28;20556;-61
2024/03/26 08:53:15;;;;;;;5.53;4.47;;;7.30;75.20;;;;;;5051954;28;20029;-62
2024/03/26 08:55:42;;;;;;;7.43;4.43;;;7.40;75.20;;;;;;5041782;28;20505;-62
2024/03/26 08:58:07;;;;;;;9.02;5.35;;;7.40;75.00;;;;;;5045075;28;20032;-61
2024/03/26 09:00:33;;;;;;;9.38;5.10;;;7.50;75.20;;;;;;5042679;28;20033;-62
2024/03/26 09:02:59;;;;;;;5.95;4.53;;;7.50;74.90;;;;;;5046362;28;20051;-62
2024/03/26 09:05:24;;;;;;;7.88;4.90;;;7.60;74.80;;;;;;5046670;28;20400;-62
2024/03/26 09:07:50;;;;;;;7.00;4.43;;;7.60;74.90;;;;;;5043154;28;20390;-61
2024/03/26 09:10:15;;;;;;;10.23;4.63;;;7.70;75.00;;;;;;5050183;28;20116;-63
2024/03/26 09:12:41;;;;;;;7.85;4.60;;;7.80;75.00;;;;;;5044122;28;20040;-63
2024/03/26 09:15:07;;;;;;;6.93;4.40;;;7.90;74.90;;;;;;5047921;28;20069;-62
2024/03/26 09:17:32;;;;;;;6.03;4.70;;;8.00;74.90;;;;;;5051683;28;20036;-61
2024/03/26 09:19:58;;;;;;;5.68;4.35;;;8.10;74.70;;;;;;5043570;28;20036;-61
2024/03/26 09:22:24;;;;;;;5.20;4.53;;;8.20;74.40;;;;;;5049381;28;20032;-63
2024/03/26 09:24:49;;;;;;;7.32;4.55;;;8.10;74.10;;;;;;5044102;28;20033;-62
2024/03/26 09:27:15;;;;;;;6.53;4.57;;;8.40;74.10;;;;;;5048514;28;20439;-62
2024/03/26 09:29:41;;;;;;;10.43;4.72;;;8.50;74.20;;;;;;5050665;28;20190;-61
2024/03/26 09:32:09;;;;;;;8.23;4.60;;;8.60;73.60;;;;;;5046219;28;20026;-61
2024/03/26 09:34:35;;;;;;;5.88;4.50;;;8.70;73.50;;;;;;5051190;28;20029;-62
2024/03/26 09:37:01;;;;;;;6.05;4.70;;;8.70;73.50;;;;;;5044642;28;20033;-61
2024/03/26 09:39:27;;;;;;;8.88;4.65;;;8.80;73.50;;;;;;5045966;28;20040;-62
2024/03/26 09:41:57;;;;;;;5.03;3.95;;;8.90;73.10;;;;;;5050101;28;20033;-63
2024/03/26 09:44:24;;;;;;;6.00;4.43;;;9.00;73.10;;;;;;5048434;28;20114;-61
2024/03/26 09:46:51;;;;;;;7.50;3.95;;;9.00;72.80;;;;;;5047566;28;20094;-60
2024/03/26 09:49:19;;;;;;;5.40;4.22;;;9.10;72.60;;;;;;5042796;28;20021;-62
2024/03/26 09:51:47;;;;;;;4.72;4.20;;;9.20;72.60;;;;;;5040651;28;20508;-62
2024/03/26 09:54:14;;;;;;;6.25;4.05;;;9.30;72.60;;;;;;5044413;28;20037;-61
2024/03/26 09:56:39;;;;;;;5.78;4.35;;;9.40;72.50;;;;;;5047273;28;20033;-61
2024/03/26 09:59:05;;;;;;;5.40;4.30;;;9.50;72.50;;;;;;5048567;28;20500;-63
2024/03/26 10:01:33;;;;;;;6.70;4.40;;;9.50;72.50;;;;;;5047480;28;20033;-63
2024/03/26 10:03:59;;;;;;;7.22;4.70;;;9.60;72.10;;;;;;5041474;28;20040;-62
2024/03/26 10:06:25;;;;;;;5.93;4.50;;;9.70;72.10;;;;;;5047596;28;20029;-61
2024/03/26 10:08:52;;;;;;;5.35;4.18;;;9.80;72.00;;;;;;5044598;28;20041;-63
2024/03/26 10:11:18;;;;;;;8.05;4.20;;;9.90;71.90;;;;;;5047050;28;20043;-62
2024/03/26 10:13:44;;;;;;;5.97;3.90;;;10.00;71.60;;;;;;5051797;28;20127;-61
2024/03/26 10:16:10;;;;;;;5.55;3.97;;;10.00;71.60;;;;;;5043817;28;20033;-63
2024/03/26 10:18:36;;;;;;;8.52;4.00;;;10.10;71.40;;;;;;5046347;28;20090;-62
2024/03/26 10:21:05;;;;;;;5.75;3.70;;;10.20;71.00;;;;;;5045705;28;20041;-60
2024/03/26 10:23:31;;;;;;;6.68;3.90;;;10.30;70.90;;;;;;5046628;28;20123;-62
2024/03/26 10:25:57;;;;;;;6.68;3.83;;;10.40;70.70;;;;;;5049901;28;20124;-63
2024/03/26 10:28:24;;;;;;;6.65;4.78;;;10.50;70.70;;;;;;5042968;28;20083;-63
2024/03/26 10:30:52;;;;;;;6.95;4.30;;;10.60;71.50;;;;;;5045233;28;20033;-61
2024/03/26 10:33:22;;;;;;;5.30;3.97;;;10.70;70.60;;;;;;5044069;28;20028;-62
2024/03/26 10:35:53;;;;;;;6.07;3.92;;;10.70;70.40;;;;;;5043112;28;20094;-63
2024/03/26 10:38:24;;;;;;;4.40;4.00;;;10.90;70.80;;;;;;5045853;28;20431;-63
2024/03/26 10:41:01;;;;;;;6.53;3.90;;;11.00;70.50;;;;;;5046342;28;20041;-61
2024/03/26 10:43:27;;;;;;;6.72;4.32;;;11.10;70.30;;;;;;5039370;28;20041;-65
2024/03/26 10:45:53;;;;;;;4.90;3.90;;;11.30;70.20;;;;;;5050075;28;20033;-63
2024/03/26 10:48:20;;;;;;;7.20;4.32;;;11.40;70.00;;;;;;5038998;28;20040;-62
2024/03/26 10:50:47;;;;;;;6.10;3.75;;;11.50;69.20;;;;;;5045762;28;20047;-63
2024/03/26 10:53:18;;;;;;;4.15;3.75;;;11.60;69.40;;;;;;5047200;28;20044;-63
2024/03/26 10:55:45;;;;;;;6.10;3.90;;;11.70;69.50;;;;;;5040674;28;20120;-63
2024/03/26 10:58:10;;;;;;;6.20;3.70;;;11.70;69.20;;;;;;5045734;28;20036;-63
2024/03/26 11:00:38;;;;;;;4.05;3.13;;;11.80;69.50;;;;;;5039163;28;20033;-61
2024/03/26 11:03:06;;;;;;;7.80;3.60;;;11.90;69.00;;;;;;5044029;28;20045;-63
2024/03/26 11:05:31;;;;;;;4.50;3.47;;;12.10;68.60;;;;;;5046293;28;20029;-61
2024/03/26 11:07:57;;;;;;;3.67;2.85;;;12.10;68.20;;;;;;5045570;28;20415;-63
2024/03/26 11:10:23;;;;;;;4.28;3.50;;;12.30;68.10;;;;;;5047627;28;20032;-64
2024/03/26 11:12:51;;;;;;;4.22;3.10;;;12.30;67.60;;;;;;5042207;28;20120;-63
2024/03/26 11:15:17;;;;;;;4.32;2.83;;;12.40;67.30;;;;;;5043469;28;20029;-61
2024/03/26 11:17:48;;;;;;;5.13;2.97;;;12.50;67.10;;;;;;5045195;28;20099;-63
2024/03/26 11:20:15;;;;;;;4.45;2.95;;;12.60;66.70;;;;;;5042138;28;20070;-63
2024/03/26 11:22:41;;;;;;;5.50;3.10;;;12.70;66.90;;;;;;5047333;28;20523;-63
2024/03/26 11:25:07;;;;;;;3.83;3.10;;;12.80;66.30;;;;;;5046034;28;20061;-63
2024/03/26 11:27:33;;;;;;;4.70;2.78;;;12.90;65.90;;;;;;5040723;28;20038;-64
2024/03/26 11:29:59;;;;;;;4.78;2.80;;;12.90;66.00;;;;;;5045078;28;20064;-63
2024/03/26 11:32:27;;;;;;;2.53;2.33;;;13.10;65.60;;;;;;5045989;28;20063;-62
2024/03/26 11:35:32;;;;;;;3.60;2.10;;;13.10;65.10;;;;;;5048406;28;20033;-62
2024/03/26 11:38:00;;;;;;;2.90;1.95;;;13.30;62.90;;;;;;4989708;28;20212;-62
2024/03/26 11:40:26;;;;;;;2.08;1.80;;;13.40;64.20;;;;;;4991167;28;20038;-63
2024/03/26 11:42:53;;;;;;;2.33;1.50;;;13.50;63.60;;;;;;5017786;28;20086;-63
2024/03/26 11:45:19;;;;;;;2.42;1.80;;;13.60;62.70;;;;;;5052074;28;20039;-63
2024/03/26 11:47:45;;;;;;;1.83;1.50;;;13.70;62.20;;;;;;5048472;28;20042;-63
2024/03/26 11:50:11;;;;;;;2.10;1.50;;;13.80;61.90;;;;;;5044466;28;20026;-62
2024/03/26 11:52:38;;;;;;;3.03;1.80;;;13.90;61.60;;;;;;5042916;28;20060;-63
2024/03/26 11:55:05;;;;;;;1.40;1.30;;;14.00;60.80;;;;;;5043293;28;20083;-62
2024/03/26 11:57:31;;;;;;;2.10;1.90;;;14.10;60.50;;;;;;5048280;28;20036;-62
2024/03/26 11:59:57;;;;;;;2.15;1.80;;;14.20;60.50;;;;;;5043016;28;20060;-62
2024/03/26 12:02:23;;;;;;;2.35;1.67;;;14.20;60.10;;;;;;5050157;28;20029;-63
2024/03/26 12:04:49;;;;;;;2.30;1.75;;;14.40;59.70;;;;;;5043671;28;20041;-63
2024/03/26 12:07:24;;;;;;;2.17;1.80;;;14.40;59.40;;;;;;5048920;28;20061;-63
2024/03/26 12:09:50;;;;;;;2.17;1.80;;;14.50;58.80;;;;;;5049591;28;20041;-63
2024/03/26 12:12:16;;;;;;;1.60;1.42;;;14.50;59.10;;;;;;5046852;28;20040;-64
2024/03/26 12:14:41;;;;;;;2.17;1.67;;;14.50;58.90;;;;;;5047398;28;20037;-64
2024/03/26 12:17:07;;;;;;;2.13;1.70;;;14.60;58.80;;;;;;5049839;28;20055;-59
2024/03/26 12:19:34;;;;;;;2.03;1.20;;;14.70;58.80;;;;;;5045503;28;20025;-63
2024/03/26 12:22:07;;;;;;;1.90;1.40;;;14.70;58.60;;;;;;5051495;28;20064;-63
2024/03/26 12:24:32;;;;;;;1.95;1.38;;;14.80;57.70;;;;;;5045728;28;20552;-63
2024/03/26 12:26:59;;;;;;;2.08;1.42;;;14.80;58.00;;;;;;5050732;28;20125;-63
2024/03/26 12:29:25;;;;;;;1.42;1.30;;;14.90;57.70;;;;;;5050301;28;20404;-63
2024/03/26 12:31:51;;;;;;;2.25;1.55;;;14.90;57.60;;;;;;5042538;28;20136;-63
2024/03/26 12:34:18;;;;;;;2.15;1.58;;;15.00;57.40;;;;;;5051858;28;20112;-63
2024/03/26 12:36:45;;;;;;;2.15;1.42;;;15.00;57.30;;;;;;5046095;28;20037;-61
2024/03/26 12:39:11;;;;;;;1.70;1.10;;;15.10;57.40;;;;;;5041703;28;20061;-64
2024/03/26 12:41:37;;;;;;;2.15;1.00;;;15.20;56.90;;;;;;5049350;28;20029;-64
2024/03/26 12:44:10;;;;;;;3.17;1.30;;;15.20;56.40;;;;;;5046874;28;20116;-63
2024/03/26 12:46:36;;;;;;;3.30;1.05;;;15.30;55.60;;;;;;5053854;28;20068;-63
2024/03/26 12:49:04;;;;;;;3.00;1.15;;;15.30;55.90;;;;;;5050393;28;20037;-62